Time;durP1;ratioP1;P1;durP2;ratioP2;P2;SDS_P1;SDS_P2;PMS_P1;PMS_P2;Temp;Humidity;BMP_temperature;BMP_pressure;BME280_temperature;BME280_humidity;BME280_pressure;Samples;Min_cycle;Max_cycle;Signal;HPM_P1;HPM_P2
2023/06/21 00:02:22;;;;;;;7.80;7.10;;;;;;;;;;6284555;28;20013;-66
2023/06/21 00:05:22;;;;;;;7.63;6.93;;;;;;;;;;6287192;28;20141;-66
2023/06/21 00:08:23;;;;;;;7.50;6.83;;;;;;;;;;6289778;28;20028;-66
2023/06/21 00:11:24;;;;;;;7.78;6.70;;;;;;;;;;6284265;28;21376;-66
2023/06/21 00:14:24;;;;;;;8.35;6.63;;;;;;;;;;6282511;28;20493;-67
2023/06/21 00:17:24;;;;;;;7.63;7.03;;;;;;;;;;6291745;28;20019;-66
2023/06/21 00:20:24;;;;;;;8.23;6.73;;;;;;;;;;6283457;28;20024;-69
2023/06/21 00:23:25;;;;;;;6.80;6.23;;;;;;;;;;6282240;28;20343;-67
2023/06/21 00:26:25;;;;;;;7.88;7.07;;;;;;;;;;6289134;28;20342;-66
2023/06/21 00:29:25;;;;;;;7.80;6.60;;;;;;;;;;6292158;28;20025;-66
2023/06/21 00:32:25;;;;;;;7.70;7.00;;;;;;;;;;6285979;28;20266;-66
2023/06/21 00:35:26;;;;;;;7.47;6.73;;;;;;;;;;6287319;28;20298;-66
2023/06/21 00:38:26;;;;;;;8.40;7.05;;;;;;;;;;6275784;28;20404;-66
2023/06/21 00:41:26;;;;;;;7.43;6.70;;;;;;;;;;6283615;28;20019;-66
2023/06/21 00:44:26;;;;;;;8.03;7.27;;;;;;;;;;6288801;28;20275;-66
2023/06/21 00:47:27;;;;;;;7.70;6.97;;;;;;;;;;6286698;28;20427;-68
2023/06/21 00:50:27;;;;;;;7.68;6.97;;;;;;;;;;6288830;28;20271;-65
2023/06/21 00:53:29;;;;;;;7.23;6.50;;;;;;;;;;6285049;28;20025;-66
2023/06/21 00:56:29;;;;;;;7.63;6.93;;;;;;;;;;6276489;28;20286;-64
2023/06/21 00:59:30;;;;;;;7.93;7.13;;;;;;;;;;6279242;28;20052;-64
2023/06/21 01:02:31;;;;;;;8.10;6.30;;;;;;;;;;6273901;28;20462;-65
2023/06/21 01:05:33;;;;;;;7.53;6.82;;;;;;;;;;6287304;28;20180;-66
2023/06/21 01:08:40;;;;;;;7.40;6.75;;;;;;;;;;6286637;28;20489;-65
2023/06/21 01:11:43;;;;;;;9.52;6.80;;;;;;;;;;6284958;28;20062;-65
2023/06/21 01:14:44;;;;;;;8.40;6.82;;;;;;;;;;6287321;28;20107;-64
2023/06/21 01:17:46;;;;;;;7.70;7.00;;;;;;;;;;6290688;28;20462;-66
2023/06/21 01:20:49;;;;;;;7.60;6.90;;;;;;;;;;6284917;28;20109;-65
2023/06/21 01:24:09;;;;;;;7.90;7.10;;;;;;;;;;6288574;28;20029;-65
2023/06/21 01:27:12;;;;;;;8.93;7.15;;;;;;;;;;6284291;28;20060;-65
2023/06/21 01:30:12;;;;;;;7.95;7.15;;;;;;;;;;6284156;28;20434;-66
2023/06/21 01:33:13;;;;;;;7.90;7.20;;;;;;;;;;6287034;28;20137;-66
2023/06/21 01:36:13;;;;;;;8.10;6.88;;;;;;;;;;6288318;28;20089;-65
2023/06/21 01:39:15;;;;;;;7.70;7.00;;;;;;;;;;6284114;28;20031;-66
2023/06/21 01:42:15;;;;;;;8.18;7.38;;;;;;;;;;6283758;28;20032;-65
2023/06/21 01:45:16;;;;;;;7.77;7.07;;;;;;;;;;6271990;28;20021;-66
2023/06/21 01:48:17;;;;;;;7.28;6.57;;;;;;;;;;6278450;28;20651;-66
2023/06/21 01:51:18;;;;;;;7.18;6.45;;;;;;;;;;6276636;28;20442;-66
2023/06/21 01:54:20;;;;;;;7.45;6.75;;;;;;;;;;6306938;28;20254;-66
2023/06/21 01:57:21;;;;;;;8.02;7.22;;;;;;;;;;6298532;28;20461;-66
2023/06/21 02:00:22;;;;;;;8.23;6.70;;;;;;;;;;6293872;28;20114;-67
2023/06/21 02:03:22;;;;;;;9.35;7.22;;;;;;;;;;6291528;28;20017;-66
2023/06/21 02:06:26;;;;;;;7.68;6.53;;;;;;;;;;6295368;28;20009;-65
2023/06/21 02:09:26;;;;;;;7.80;6.82;;;;;;;;;;6289254;28;20028;-69
2023/06/21 02:12:30;;;;;;;9.15;7.25;;;;;;;;;;6285587;28;20016;-66
2023/06/21 02:15:31;;;;;;;8.18;7.47;;;;;;;;;;6294093;28;20028;-66
2023/06/21 02:18:31;;;;;;;7.53;6.90;;;;;;;;;;6291758;28;20027;-66
2023/06/21 02:21:31;;;;;;;8.02;7.22;;;;;;;;;;6292246;28;20191;-66
2023/06/21 02:24:31;;;;;;;7.75;7.05;;;;;;;;;;6290267;28;20035;-66
2023/06/21 02:27:32;;;;;;;7.27;6.47;;;;;;;;;;6288624;28;20032;-66
2023/06/21 02:30:32;;;;;;;6.85;6.25;;;;;;;;;;6285061;28;20278;-67
2023/06/21 02:33:32;;;;;;;6.05;5.55;;;;;;;;;;6287714;28;20465;-66
2023/06/21 02:36:33;;;;;;;8.30;7.40;;;;;;;;;;6285283;28;20020;-64
2023/06/21 02:39:33;;;;;;;7.50;6.83;;;;;;;;;;6282565;28;20107;-64
2023/06/21 02:42:33;;;;;;;7.43;6.57;;;;;;;;;;6287068;28;20294;-65
2023/06/21 02:45:33;;;;;;;8.13;7.32;;;;;;;;;;6292507;28;20278;-65
2023/06/21 02:48:34;;;;;;;7.50;6.80;;;;;;;;;;6288336;28;20013;-65
2023/06/21 02:51:35;;;;;;;8.03;6.83;;;;;;;;;;6282469;28;20063;-65
2023/06/21 02:54:36;;;;;;;7.90;7.05;;;;;;;;;;6292228;28;20396;-65
2023/06/21 02:57:36;;;;;;;7.97;7.28;;;;;;;;;;6292540;28;20457;-65
2023/06/21 03:00:36;;;;;;;7.68;6.72;;;;;;;;;;6285279;28;20059;-65
2023/06/21 03:03:36;;;;;;;7.33;6.67;;;;;;;;;;6287922;28;20398;-65
2023/06/21 03:06:37;;;;;;;7.83;7.13;;;;;;;;;;6288438;28;20354;-65
2023/06/21 03:09:37;;;;;;;7.80;7.10;;;;;;;;;;6284524;28;20279;-66
2023/06/21 03:12:38;;;;;;;7.77;7.07;;;;;;;;;;6289123;28;20274;-64
2023/06/21 03:15:38;;;;;;;8.43;7.40;;;;;;;;;;6289347;28;20289;-65
2023/06/21 03:18:39;;;;;;;7.03;6.43;;;;;;;;;;6272651;28;20036;-65
2023/06/21 03:21:39;;;;;;;7.90;7.20;;;;;;;;;;6271035;28;20278;-65
2023/06/21 03:24:39;;;;;;;10.13;7.57;;;;;;;;;;6274820;28;20032;-66
2023/06/21 03:27:40;;;;;;;7.90;7.20;;;;;;;;;;6272879;28;20298;-66
2023/06/21 03:30:40;;;;;;;7.90;7.18;;;;;;;;;;6275816;28;20036;-66
2023/06/21 03:33:40;;;;;;;7.93;7.13;;;;;;;;;;6284880;28;20067;-65
2023/06/21 03:36:40;;;;;;;9.10;7.43;;;;;;;;;;6277135;28;20267;-66
2023/06/21 03:39:41;;;;;;;9.10;7.87;;;;;;;;;;6272715;28;20283;-67
2023/06/21 03:42:41;;;;;;;7.63;7.03;;;;;;;;;;6288137;28;20017;-65
2023/06/21 03:45:42;;;;;;;7.95;7.20;;;;;;;;;;6279043;28;20274;-65
2023/06/21 03:48:42;;;;;;;7.93;7.18;;;;;;;;;;6272941;28;20436;-65
2023/06/21 03:51:42;;;;;;;8.57;7.53;;;;;;;;;;6277955;28;20335;-64
2023/06/21 03:54:43;;;;;;;8.40;7.60;;;;;;;;;;6276808;28;20044;-65
2023/06/21 03:57:43;;;;;;;8.80;7.47;;;;;;;;;;6268483;28;20033;-66
2023/06/21 04:00:43;;;;;;;8.27;7.57;;;;;;;;;;6271257;28;20283;-67
2023/06/21 04:03:43;;;;;;;8.38;7.68;;;;;;;;;;6267940;28;20066;-66
2023/06/21 04:06:44;;;;;;;8.50;7.80;;;;;;;;;;6285665;28;20032;-69
2023/06/21 04:09:45;;;;;;;8.03;7.33;;;;;;;;;;6274249;28;20278;-64
2023/06/21 04:12:45;;;;;;;8.40;7.55;;;;;;;;;;6271957;28;20278;-65
2023/06/21 04:15:45;;;;;;;8.10;7.30;;;;;;;;;;6273793;28;20015;-66
2023/06/21 04:18:45;;;;;;;8.80;7.80;;;;;;;;;;6275908;28;20274;-65
2023/06/21 04:21:46;;;;;;;8.63;7.75;;;;;;;;;;6273360;28;20350;-66
2023/06/21 04:24:46;;;;;;;7.47;6.77;;;;;;;;;;6279482;28;20036;-65
2023/06/21 04:27:46;;;;;;;7.78;7.07;;;;;;;;;;6285318;28;20277;-65
2023/06/21 04:30:46;;;;;;;7.75;7.00;;;;;;;;;;6281729;28;20032;-65
2023/06/21 04:33:47;;;;;;;9.93;8.93;;;;;;;;;;6277398;28;20797;-66
2023/06/21 04:36:47;;;;;;;8.73;7.83;;;;;;;;;;6278179;28;21989;-66
2023/06/21 04:39:48;;;;;;;7.78;7.10;;;;;;;;;;6281876;28;21791;-66
2023/06/21 04:42:54;;;;;;;10.00;7.60;;;;;;;;;;6280447;28;20048;-66
2023/06/21 04:45:54;;;;;;;8.05;7.30;;;;;;;;;;6283385;28;20016;-66
2023/06/21 04:48:54;;;;;;;7.67;6.97;;;;;;;;;;6283282;28;20016;-68
2023/06/21 04:51:57;;;;;;;8.07;7.38;;;;;;;;;;6277613;28;20017;-65
2023/06/21 04:55:01;;;;;;;7.90;7.18;;;;;;;;;;6273852;28;20114;-65
2023/06/21 04:58:03;;;;;;;8.05;7.30;;;;;;;;;;6281953;28;20045;-65
2023/06/21 05:01:03;;;;;;;8.43;7.70;;;;;;;;;;6283257;28;20028;-66
2023/06/21 05:04:03;;;;;;;8.75;7.68;;;;;;;;;;6280796;28;20020;-65
2023/06/21 05:07:05;;;;;;;8.52;7.65;;;;;;;;;;6268999;28;20036;-67
2023/06/21 05:10:09;;;;;;;8.98;7.60;;;;;;;;;;6272961;28;20079;-65
2023/06/21 05:13:09;;;;;;;8.20;7.40;;;;;;;;;;6288048;28;20020;-66
2023/06/21 05:16:09;;;;;;;10.20;7.93;;;;;;;;;;6279999;28;20563;-65
2023/06/21 05:19:10;;;;;;;8.82;7.45;;;;;;;;;;6280485;28;20282;-65
2023/06/21 05:22:11;;;;;;;8.25;7.45;;;;;;;;;;6269336;28;20104;-65
2023/06/21 05:25:11;;;;;;;8.37;7.67;;;;;;;;;;6276365;28;20027;-65
2023/06/21 05:28:11;;;;;;;9.55;7.65;;;;;;;;;;6291538;28;20353;-65
2023/06/21 05:31:11;;;;;;;8.67;7.87;;;;;;;;;;6284961;28;20465;-63
2023/06/21 05:34:12;;;;;;;9.67;8.03;;;;;;;;;;6281296;28;20290;-65
2023/06/21 05:37:13;;;;;;;8.77;7.63;;;;;;;;;;6278096;28;20020;-66
2023/06/21 05:40:13;;;;;;;8.40;7.60;;;;;;;;;;6281102;28;20016;-65
2023/06/21 05:43:13;;;;;;;8.50;7.80;;;;;;;;;;6280551;28;20348;-66
2023/06/21 05:46:13;;;;;;;8.97;7.80;;;;;;;;;;6285970;28;20013;-65
2023/06/21 05:49:14;;;;;;;8.30;7.50;;;;;;;;;;6280349;28;20489;-67
2023/06/21 05:52:15;;;;;;;8.23;7.53;;;;;;;;;;6281199;28;20557;-63
2023/06/21 05:55:15;;;;;;;8.45;7.63;;;;;;;;;;6291031;28;20051;-64
2023/06/21 05:58:19;;;;;;;8.43;7.63;;;;;;;;;;6281116;28;20021;-66
2023/06/21 06:01:20;;;;;;;8.13;7.43;;;;;;;;;;6281094;28;20024;-65
2023/06/21 06:04:20;;;;;;;8.88;8.07;;;;;;;;;;6281723;28;20040;-69
2023/06/21 06:07:20;;;;;;;10.80;7.97;;;;;;;;;;6277568;28;20020;-65
2023/06/21 06:10:20;;;;;;;8.77;7.97;;;;;;;;;;6270267;28;20356;-69
2023/06/21 06:13:21;;;;;;;7.63;7.03;;;;;;;;;;6284762;28;20485;-68
2023/06/21 06:16:21;;;;;;;8.25;7.45;;;;;;;;;;6280505;28;20094;-68
2023/06/21 06:19:22;;;;;;;8.17;7.47;;;;;;;;;;6289120;28;20009;-68
2023/06/21 06:22:22;;;;;;;9.55;8.43;;;;;;;;;;6285102;28;20274;-69
2023/06/21 06:25:22;;;;;;;9.10;8.30;;;;;;;;;;6288448;28;20017;-68
2023/06/21 06:28:23;;;;;;;9.07;8.10;;;;;;;;;;6288705;28;20328;-68
2023/06/21 06:31:24;;;;;;;9.45;8.55;;;;;;;;;;6280586;28;20810;-67
2023/06/21 06:34:24;;;;;;;8.82;7.93;;;;;;;;;;6279924;28;20072;-67
2023/06/21 06:37:24;;;;;;;9.20;8.40;;;;;;;;;;6285867;28;20016;-69
2023/06/21 06:40:25;;;;;;;8.90;8.03;;;;;;;;;;6275586;28;20025;-68
2023/06/21 06:43:25;;;;;;;8.52;7.75;;;;;;;;;;6283755;28;20104;-70
2023/06/21 06:46:26;;;;;;;8.90;8.02;;;;;;;;;;6287132;28;20055;-68
2023/06/21 06:49:27;;;;;;;9.38;8.45;;;;;;;;;;6280733;28;20060;-68
2023/06/21 06:52:27;;;;;;;10.15;9.25;;;;;;;;;;6283621;28;20064;-69
2023/06/21 06:55:28;;;;;;;10.05;9.07;;;;;;;;;;6285501;28;20103;-69
2023/06/21 06:58:28;;;;;;;9.63;8.82;;;;;;;;;;6281653;28;20079;-68
2023/06/21 07:01:29;;;;;;;10.80;9.02;;;;;;;;;;6279842;28;20013;-67
2023/06/21 07:04:29;;;;;;;10.18;9.18;;;;;;;;;;5932751;28;10000363;-69
2023/06/21 07:07:29;;;;;;;9.95;9.05;;;;;;;;;;6280006;28;20527;-68
2023/06/21 07:10:30;;;;;;;9.20;8.30;;;;;;;;;;6277493;28;20527;-69
2023/06/21 07:13:30;;;;;;;10.67;8.73;;;;;;;;;;6283771;28;20028;-70
2023/06/21 07:16:33;;;;;;;10.07;9.13;;;;;;;;;;6279451;28;20271;-70
2023/06/21 07:19:34;;;;;;;10.40;9.52;;;;;;;;;;6277860;28;20263;-70
2023/06/21 07:22:35;;;;;;;10.50;9.50;;;;;;;;;;6276021;28;20020;-70
2023/06/21 07:25:36;;;;;;;10.02;9.23;;;;;;;;;;6289510;28;20029;-71
2023/06/21 07:28:36;;;;;;;10.13;9.13;;;;;;;;;;6282121;28;20025;-71
2023/06/21 07:31:37;;;;;;;10.27;9.27;;;;;;;;;;6283297;28;20035;-71
2023/06/21 07:34:37;;;;;;;10.25;9.43;;;;;;;;;;6285530;28;20036;-71
2023/06/21 07:37:38;;;;;;;10.27;9.45;;;;;;;;;;6292402;28;20032;-71
2023/06/21 07:40:41;;;;;;;10.55;9.32;;;;;;;;;;6277709;28;20028;-70
2023/06/21 07:43:41;;;;;;;10.45;9.45;;;;;;;;;;6280439;28;20115;-71
2023/06/21 07:46:42;;;;;;;10.60;9.60;;;;;;;;;;6280753;28;20027;-71
2023/06/21 07:49:43;;;;;;;10.55;9.50;;;;;;;;;;6285042;28;20028;-71
2023/06/21 07:52:43;;;;;;;10.43;9.43;;;;;;;;;;6280176;28;20330;-71
2023/06/21 07:55:43;;;;;;;9.93;9.03;;;;;;;;;;6290466;28;20059;-71
2023/06/21 07:58:44;;;;;;;10.55;9.52;;;;;;;;;;6282442;28;20108;-72
2023/06/21 08:01:44;;;;;;;9.43;8.50;;;;;;;;;;6271364;28;20058;-73
2023/06/21 08:04:45;;;;;;;9.73;8.82;;;;;;;;;;6284532;28;20028;-71
2023/06/21 08:07:46;;;;;;;9.93;8.88;;;;;;;;;;6272772;28;20024;-70
2023/06/21 08:10:47;;;;;;;10.10;9.15;;;;;;;;;;6284656;28;20462;-71
2023/06/21 08:13:47;;;;;;;10.48;9.57;;;;;;;;;;6290537;28;20032;-71
2023/06/21 08:16:47;;;;;;;10.43;9.52;;;;;;;;;;6304903;28;20351;-70
2023/06/21 08:19:50;;;;;;;9.00;8.18;;;;;;;;;;6286070;28;20091;-71
2023/06/21 08:22:50;;;;;;;9.57;8.68;;;;;;;;;;6274287;28;20021;-71
2023/06/21 08:25:51;;;;;;;10.40;9.50;;;;;;;;;;6276468;28;20500;-71
2023/06/21 08:28:51;;;;;;;10.30;8.82;;;;;;;;;;6278098;28;20024;-70
2023/06/21 08:31:52;;;;;;;9.67;8.63;;;;;;;;;;6277522;28;20008;-71
2023/06/21 08:34:55;;;;;;;9.50;7.57;;;;;;;;;;6272175;28;20061;-71
2023/06/21 08:37:58;;;;;;;9.50;8.70;;;;;;;;;;6275693;28;20091;-70
2023/06/21 08:41:02;;;;;;;8.60;7.68;;;;;;;;;;6287694;28;20025;-70
2023/06/21 08:44:02;;;;;;;8.43;7.50;;;;;;;;;;6290963;28;20021;-72
2023/06/21 08:47:04;;;;;;;8.02;7.32;;;;;;;;;;6282198;28;20127;-71
2023/06/21 08:50:05;;;;;;;7.68;6.97;;;;;;;;;;6276695;28;20029;-70
2023/06/21 08:53:06;;;;;;;8.30;7.53;;;;;;;;;;6280006;28;20111;-71
2023/06/21 08:56:07;;;;;;;7.43;6.75;;;;;;;;;;6286003;28;20032;-71
2023/06/21 08:59:11;;;;;;;7.38;6.60;;;;;;;;;;6273404;28;20166;-71
2023/06/21 09:02:20;;;;;;;8.02;7.22;;;;;;;;;;6276236;28;20146;-71
2023/06/21 09:05:25;;;;;;;7.93;7.22;;;;;;;;;;6273721;28;20031;-70
2023/06/21 09:08:26;;;;;;;7.97;7.28;;;;;;;;;;6288890;28;20025;-71
2023/06/21 09:11:26;;;;;;;6.70;6.10;;;;;;;;;;6271310;28;20064;-70
2023/06/21 09:14:31;;;;;;;7.05;6.03;;;;;;;;;;6278676;28;20055;-71
2023/06/21 09:17:31;;;;;;;6.20;5.20;;;;;;;;;;6280623;28;20085;-71
2023/06/21 09:20:32;;;;;;;5.00;4.20;;;;;;;;;;6285549;28;20016;-70
2023/06/21 09:23:32;;;;;;;4.70;4.25;;;;;;;;;;6281863;28;20040;-71
2023/06/21 09:26:33;;;;;;;4.28;3.88;;;;;;;;;;6278510;28;20024;-70
2023/06/21 09:29:34;;;;;;;5.45;4.03;;;;;;;;;;6274908;28;20098;-71
2023/06/21 09:32:35;;;;;;;5.47;3.95;;;;;;;;;;6272168;28;20017;-71
2023/06/21 09:35:38;;;;;;;6.90;4.85;;;;;;;;;;6281876;28;20106;-72
2023/06/21 09:38:38;;;;;;;7.18;4.57;;;;;;;;;;6268955;28;20021;-73
2023/06/21 09:41:39;;;;;;;5.10;4.60;;;;;;;;;;6279100;28;20040;-72
2023/06/21 09:44:41;;;;;;;5.00;4.50;;;;;;;;;;6280671;28;20806;-71
2023/06/21 09:47:41;;;;;;;5.82;4.55;;;;;;;;;;6281347;28;20445;-72
2023/06/21 09:50:43;;;;;;;6.82;3.78;;;;;;;;;;6273368;28;20025;-71
2023/06/21 09:53:45;;;;;;;6.07;4.40;;;;;;;;;;6278206;28;20021;-73
2023/06/21 09:56:46;;;;;;;8.27;4.90;;;;;;;;;;6279228;28;20055;-72
2023/06/21 09:59:47;;;;;;;6.35;4.22;;;;;;;;;;6284205;28;20448;-71
2023/06/21 10:02:51;;;;;;;6.13;4.75;;;;;;;;;;6281770;28;20032;-72
2023/06/21 10:05:54;;;;;;;5.00;4.50;;;;;;;;;;6277716;28;20017;-72
2023/06/21 10:08:54;;;;;;;5.88;5.03;;;;;;;;;;6287641;28;20043;-72
2023/06/21 10:11:55;;;;;;;6.88;4.68;;;;;;;;;;6287467;28;20032;-73
2023/06/21 10:14:58;;;;;;;4.95;4.45;;;;;;;;;;6284048;28;20047;-71
2023/06/21 10:17:58;;;;;;;4.72;4.18;;;;;;;;;;6279708;28;20111;-73
2023/06/21 10:21:03;;;;;;;7.20;4.25;;;;;;;;;;6283404;28;20491;-73
2023/06/21 10:24:04;;;;;;;4.53;4.13;;;;;;;;;;6281175;28;20027;-72
2023/06/21 10:27:06;;;;;;;7.70;4.25;;;;;;;;;;6284065;28;20527;-73
2023/06/21 10:30:07;;;;;;;5.10;4.10;;;;;;;;;;6287128;28;20016;-72
2023/06/21 10:33:08;;;;;;;8.25;4.47;;;;;;;;;;6282581;28;22751;-72
2023/06/21 10:36:14;;;;;;;7.43;4.22;;;;;;;;;;6285957;28;20048;-73
2023/06/21 10:39:15;;;;;;;6.50;4.20;;;;;;;;;;6288411;28;20024;-72
2023/06/21 10:42:15;;;;;;;5.18;4.65;;;;;;;;;;6286837;28;20047;-71
2023/06/21 10:45:16;;;;;;;4.50;4.03;;;;;;;;;;6284036;28;20050;-70
2023/06/21 10:48:17;;;;;;;4.63;4.25;;;;;;;;;;6282735;28;20012;-72
2023/06/21 10:51:17;;;;;;;5.85;4.32;;;;;;;;;;6292244;28;20104;-72
2023/06/21 10:54:18;;;;;;;8.10;5.00;;;;;;;;;;6288142;28;20104;-72
2023/06/21 10:57:18;;;;;;;5.13;4.63;;;;;;;;;;6287584;28;20270;-71
2023/06/21 11:00:19;;;;;;;5.33;4.77;;;;;;;;;;6283801;28;20024;-71
2023/06/21 11:03:25;;;;;;;6.30;4.82;;;;;;;;;;6286844;28;20270;-72
2023/06/21 11:06:28;;;;;;;6.88;4.82;;;;;;;;;;6290431;28;20334;-71
2023/06/21 11:09:29;;;;;;;7.28;4.63;;;;;;;;;;6279459;28;20067;-71
2023/06/21 11:12:29;;;;;;;7.25;4.30;;;;;;;;;;6283015;28;20020;-72
2023/06/21 11:15:30;;;;;;;5.13;4.17;;;;;;;;;;6284991;28;20017;-72
2023/06/21 11:18:30;;;;;;;4.95;4.13;;;;;;;;;;5933389;28;10000574;-73
2023/06/21 11:21:38;;;;;;;4.95;4.25;;;;;;;;;;6292845;28;20048;-73
2023/06/21 11:24:48;;;;;;;6.38;4.75;;;;;;;;;;6282049;28;20040;-73
2023/06/21 11:28:29;;;;;;;5.85;4.40;;;;;;;;;;6284509;28;20401;-71
2023/06/21 11:31:37;;;;;;;6.63;4.00;;;;;;;;;;6214668;28;20025;-71
2023/06/21 11:34:50;;;;;;;5.25;4.25;;;;;;;;;;6214705;28;20049;-72
2023/06/21 11:37:56;;;;;;;4.47;3.85;;;;;;;;;;6284420;28;20054;-71
2023/06/21 11:40:57;;;;;;;6.30;3.10;;;;;;;;;;6284136;28;20024;-72
2023/06/21 11:43:57;;;;;;;4.82;3.83;;;;;;;;;;6284937;28;20021;-71
2023/06/21 11:47:13;;;;;;;6.13;3.40;;;;;;;;;;6284701;28;20568;-71
2023/06/21 11:50:14;;;;;;;4.47;3.20;;;;;;;;;;6288756;28;20128;-71
2023/06/21 11:53:18;;;;;;;5.40;3.85;;;;;;;;;;6282523;28;20493;-71
2023/06/21 11:56:19;;;;;;;4.05;3.65;;;;;;;;;;6278970;28;20493;-72
2023/06/21 11:59:22;;;;;;;4.38;3.30;;;;;;;;;;6282185;28;20024;-71
2023/06/21 12:02:22;;;;;;;5.55;3.58;;;;;;;;;;6281057;28;20497;-70
2023/06/21 12:05:23;;;;;;;5.30;3.60;;;;;;;;;;6283635;28;20021;-71
2023/06/21 12:08:26;;;;;;;4.83;3.73;;;;;;;;;;6285747;28;20275;-71
2023/06/21 12:11:27;;;;;;;8.38;3.47;;;;;;;;;;6283757;28;20098;-71
2023/06/21 12:14:27;;;;;;;4.72;3.25;;;;;;;;;;6278424;28;20009;-71
2023/06/21 12:17:27;;;;;;;5.50;3.30;;;;;;;;;;6285380;28;20020;-71
2023/06/21 12:20:28;;;;;;;4.13;3.60;;;;;;;;;;6284659;28;20403;-72
2023/06/21 12:23:28;;;;;;;3.88;3.53;;;;;;;;;;6280417;28;20029;-72
2023/06/21 12:26:29;;;;;;;7.80;4.20;;;;;;;;;;6279931;28;20021;-72
2023/06/21 12:29:30;;;;;;;6.45;3.95;;;;;;;;;;6283233;28;20258;-71
2023/06/21 12:32:33;;;;;;;4.20;3.83;;;;;;;;;;6279785;28;20134;-71
2023/06/21 12:35:37;;;;;;;4.82;4.10;;;;;;;;;;6280222;28;20097;-72
2023/06/21 12:38:37;;;;;;;4.57;3.90;;;;;;;;;;6285498;28;20109;-72
2023/06/21 12:41:39;;;;;;;7.65;3.83;;;;;;;;;;6279569;28;20032;-72
2023/06/21 12:44:39;;;;;;;7.80;4.50;;;;;;;;;;6286941;28;20461;-72
2023/06/21 12:47:47;;;;;;;4.80;4.33;;;;;;;;;;6278193;28;20025;-71
2023/06/21 12:50:47;;;;;;;6.13;4.35;;;;;;;;;;6274381;28;20020;-72
2023/06/21 12:53:52;;;;;;;5.13;4.73;;;;;;;;;;6286148;28;20035;-72
2023/06/21 12:56:53;;;;;;;6.07;4.70;;;;;;;;;;6287166;28;20081;-72
2023/06/21 12:59:53;;;;;;;5.50;4.63;;;;;;;;;;6286358;28;20446;-72
2023/06/21 13:02:53;;;;;;;4.70;3.80;;;;;;;;;;6281043;28;20716;-72
2023/06/21 13:05:54;;;;;;;4.47;4.07;;;;;;;;;;6289102;28;20544;-72
2023/06/21 13:08:55;;;;;;;5.30;4.22;;;;;;;;;;6280171;28;20112;-72
2023/06/21 13:11:55;;;;;;;4.57;3.85;;;;;;;;;;6282071;28;20052;-72
2023/06/21 13:14:56;;;;;;;4.00;3.60;;;;;;;;;;6281887;28;20037;-72
2023/06/21 13:17:57;;;;;;;4.78;4.32;;;;;;;;;;6285796;28;20023;-70
2023/06/21 13:21:00;;;;;;;6.30;4.20;;;;;;;;;;6274092;28;20036;-74
2023/06/21 13:24:02;;;;;;;5.28;3.33;;;;;;;;;;6277968;28;20028;-72
2023/06/21 13:27:03;;;;;;;4.45;3.50;;;;;;;;;;6274609;28;20013;-72
2023/06/21 13:30:04;;;;;;;3.70;3.22;;;;;;;;;;6274866;28;20027;-71
2023/06/21 13:33:05;;;;;;;3.40;3.10;;;;;;;;;;6285526;28;20127;-72
2023/06/21 13:36:06;;;;;;;5.38;3.40;;;;;;;;;;6282732;28;20123;-72
2023/06/21 13:39:06;;;;;;;4.32;3.60;;;;;;;;;;6285318;28;20025;-71
2023/06/21 13:42:08;;;;;;;5.53;2.78;;;;;;;;;;6283855;28;20024;-71
2023/06/21 13:45:08;;;;;;;3.28;2.67;;;;;;;;;;6285994;28;20021;-70
2023/06/21 13:48:09;;;;;;;4.90;3.30;;;;;;;;;;6286733;28;20023;-70
2023/06/21 13:51:10;;;;;;;6.72;3.75;;;;;;;;;;6293178;28;20021;-72
2023/06/21 13:54:11;;;;;;;3.30;3.00;;;;;;;;;;6286313;28;20304;-72
2023/06/21 13:57:17;;;;;;;5.03;3.15;;;;;;;;;;6289563;28;20055;-71
2023/06/21 14:00:18;;;;;;;3.53;2.72;;;;;;;;;;6284196;28;20397;-72
2023/06/21 14:03:18;;;;;;;4.28;2.70;;;;;;;;;;6285562;28;20021;-71
2023/06/21 14:06:19;;;;;;;3.10;2.50;;;;;;;;;;6291297;28;20108;-71
2023/06/21 14:09:19;;;;;;;5.22;2.42;;;;;;;;;;6289831;28;20358;-71
2023/06/21 14:12:19;;;;;;;6.05;2.35;;;;;;;;;;6296324;28;20025;-73
2023/06/21 14:15:20;;;;;;;5.73;2.50;;;;;;;;;;6288834;28;20021;-71
2023/06/21 14:18:20;;;;;;;4.93;2.53;;;;;;;;;;6288030;28;20140;-71
2023/06/21 14:21:20;;;;;;;3.00;2.17;;;;;;;;;;6283506;28;20384;-72
2023/06/21 14:24:21;;;;;;;5.53;2.42;;;;;;;;;;6287176;28;20287;-71
2023/06/21 14:27:21;;;;;;;4.18;2.55;;;;;;;;;;6287052;28;20545;-71
2023/06/21 14:30:22;;;;;;;4.53;3.00;;;;;;;;;;6287977;28;20437;-70
2023/06/21 14:33:22;;;;;;;8.02;3.17;;;;;;;;;;6281636;28;20103;-71
2023/06/21 14:36:22;;;;;;;5.10;3.03;;;;;;;;;;6283780;28;20088;-71
2023/06/21 14:39:23;;;;;;;7.30;3.70;;;;;;;;;;6285971;28;20044;-71
2023/06/21 14:42:24;;;;;;;6.70;3.55;;;;;;;;;;6292821;28;20053;-71
2023/06/21 14:45:25;;;;;;;4.35;3.25;;;;;;;;;;6295871;28;20021;-71
2023/06/21 14:48:25;;;;;;;5.60;3.45;;;;;;;;;;6289152;28;20020;-70
2023/06/21 14:51:25;;;;;;;3.83;3.00;;;;;;;;;;6283517;28;20013;-71
2023/06/21 14:54:26;;;;;;;6.40;3.20;;;;;;;;;;6285492;28;20493;-72
2023/06/21 14:57:26;;;;;;;6.00;3.80;;;;;;;;;;6284503;28;20028;-71
2023/06/21 15:00:26;;;;;;;5.53;3.97;;;;;;;;;;6285310;28;20115;-72
2023/06/21 15:03:27;;;;;;;5.33;4.17;;;;;;;;;;6290650;28;20016;-71
2023/06/21 15:06:27;;;;;;;7.80;4.32;;;;;;;;;;6289701;28;20739;-71
2023/06/21 15:09:27;;;;;;;5.43;4.50;;;;;;;;;;6291665;28;20009;-71
2023/06/21 15:12:28;;;;;;;4.87;3.83;;;;;;;;;;6307018;28;20248;-71
2023/06/21 15:15:28;;;;;;;5.37;4.60;;;;;;;;;;6293224;28;20021;-71
2023/06/21 15:18:29;;;;;;;6.18;4.45;;;;;;;;;;6289454;28;20107;-71
2023/06/21 15:21:29;;;;;;;4.73;4.23;;;;;;;;;;6285705;28;20810;-72
2023/06/21 15:24:29;;;;;;;5.10;3.87;;;;;;;;;;6286824;28;20281;-70
2023/06/21 15:27:30;;;;;;;4.70;4.30;;;;;;;;;;6280115;28;20252;-72
2023/06/21 15:30:30;;;;;;;4.20;3.80;;;;;;;;;;6282568;28;20433;-72
2023/06/21 15:33:30;;;;;;;5.88;4.07;;;;;;;;;;6296248;28;20250;-71
2023/06/21 15:36:31;;;;;;;4.07;3.67;;;;;;;;;;6290092;28;20025;-71
2023/06/21 15:39:31;;;;;;;4.33;3.87;;;;;;;;;;6289377;28;20028;-71
2023/06/21 15:42:32;;;;;;;6.55;3.53;;;;;;;;;;6290055;28;20254;-70
2023/06/21 15:45:32;;;;;;;4.70;3.28;;;;;;;;;;6287391;28;20037;-70
2023/06/21 15:48:32;;;;;;;5.30;2.83;;;;;;;;;;6286434;28;20091;-70
2023/06/21 15:51:33;;;;;;;7.82;3.28;;;;;;;;;;6282590;28;20040;-70
2023/06/21 15:54:33;;;;;;;5.43;3.03;;;;;;;;;;6278778;28;20100;-67
2023/06/21 15:57:34;;;;;;;4.78;3.03;;;;;;;;;;6282362;28;20087;-66
2023/06/21 16:00:34;;;;;;;7.07;3.03;;;;;;;;;;6283680;28;20112;-69
2023/06/21 16:03:35;;;;;;;5.88;3.03;;;;;;;;;;6287391;28;20027;-67
2023/06/21 16:06:35;;;;;;;4.63;3.10;;;;;;;;;;6284096;28;20032;-67
2023/06/21 16:09:35;;;;;;;5.13;2.93;;;;;;;;;;6284284;28;20033;-67
2023/06/21 16:12:35;;;;;;;4.83;3.07;;;;;;;;;;6285992;28;20489;-68
2023/06/21 16:15:37;;;;;;;6.90;2.83;;;;;;;;;;6290473;28;20032;-67
2023/06/21 16:18:38;;;;;;;4.22;2.92;;;;;;;;;;6277306;28;20082;-68
2023/06/21 16:21:38;;;;;;;4.40;2.85;;;;;;;;;;6283253;28;20025;-67
2023/06/21 16:24:39;;;;;;;4.95;2.67;;;;;;;;;;6280981;28;20452;-68
2023/06/21 16:27:39;;;;;;;7.63;3.13;;;;;;;;;;6283050;28;20123;-67
2023/06/21 16:30:39;;;;;;;4.20;2.87;;;;;;;;;;6277698;28;20028;-67
2023/06/21 16:33:39;;;;;;;5.37;2.97;;;;;;;;;;6280499;28;20063;-68
2023/06/21 16:36:40;;;;;;;3.90;3.13;;;;;;;;;;6279232;28;20048;-68
2023/06/21 16:39:40;;;;;;;6.13;3.87;;;;;;;;;;6284910;28;20280;-68
2023/06/21 16:42:41;;;;;;;7.78;3.38;;;;;;;;;;6284708;28;21638;-67
2023/06/21 16:45:41;;;;;;;5.20;3.47;;;;;;;;;;6284357;28;20297;-68
2023/06/21 16:48:42;;;;;;;6.72;3.83;;;;;;;;;;6278414;28;20027;-68
2023/06/21 16:51:42;;;;;;;7.45;4.45;;;;;;;;;;6281212;28;20112;-67
2023/06/21 16:54:42;;;;;;;4.80;4.10;;;;;;;;;;6283690;28;20102;-67
2023/06/21 16:57:43;;;;;;;5.83;3.80;;;;;;;;;;6284196;28;20040;-66
2023/06/21 17:00:43;;;;;;;6.63;3.80;;;;;;;;;;6288211;28;20039;-67
2023/06/21 17:03:43;;;;;;;7.07;3.10;;;;;;;;;;6288146;28;20162;-68
2023/06/21 17:06:44;;;;;;;5.85;3.00;;;;;;;;;;6272774;28;20033;-68
2023/06/21 17:09:44;;;;;;;4.00;2.92;;;;;;;;;;6284049;28;20021;-69
2023/06/21 17:12:45;;;;;;;3.37;2.40;;;;;;;;;;6283530;28;20037;-69
2023/06/21 17:15:45;;;;;;;4.50;2.70;;;;;;;;;;6275754;28;20288;-69
2023/06/21 17:18:47;;;;;;;3.17;2.87;;;;;;;;;;6276978;28;20042;-69
2023/06/21 17:21:47;;;;;;;4.70;3.05;;;;;;;;;;6286360;28;20032;-68
2023/06/21 17:24:50;;;;;;;6.25;3.17;;;;;;;;;;6282272;28;20016;-69
2023/06/21 17:27:51;;;;;;;7.18;3.05;;;;;;;;;;6278596;28;20398;-68
2023/06/21 17:30:51;;;;;;;7.80;3.13;;;;;;;;;;6276582;28;20058;-68
2023/06/21 17:33:51;;;;;;;8.60;3.00;;;;;;;;;;6290926;28;20028;-69
2023/06/21 17:36:52;;;;;;;4.93;2.30;;;;;;;;;;6289035;28;20028;-69
2023/06/21 17:39:54;;;;;;;4.88;2.80;;;;;;;;;;6275200;28;21135;-68
2023/06/21 17:42:54;;;;;;;6.53;2.85;;;;;;;;;;6285346;28;20212;-68
2023/06/21 17:45:54;;;;;;;3.60;2.43;;;;;;;;;;6289574;28;20337;-68
2023/06/21 17:48:55;;;;;;;4.05;2.42;;;;;;;;;;6283954;28;20271;-69
2023/06/21 17:51:55;;;;;;;3.60;2.28;;;;;;;;;;6277786;28;20063;-69
2023/06/21 17:54:56;;;;;;;8.73;2.58;;;;;;;;;;6283787;28;20033;-68
2023/06/21 17:57:56;;;;;;;4.32;2.30;;;;;;;;;;6286080;28;20203;-68
2023/06/21 18:00:57;;;;;;;3.08;2.00;;;;;;;;;;6285765;28;20405;-68
2023/06/21 18:03:57;;;;;;;3.17;1.70;;;;;;;;;;6280377;28;20028;-68